sensor_id;sensor_type;location;lat;lon;timestamp;temperature;humidity
18160;DHT22;9205;52.032;4.314;2023-10-31T00:01:56;11.10;99.90
18160;DHT22;9205;52.032;4.314;2023-10-31T00:04:25;11.50;99.90
18160;DHT22;9205;52.032;4.314;2023-10-31T00:06:52;11.40;99.90
18160;DHT22;9205;52.032;4.314;2023-10-31T00:09:19;11.20;99.90
18160;DHT22;9205;52.032;4.314;2023-10-31T00:11:46;11.00;99.90
18160;DHT22;9205;52.032;4.314;2023-10-31T00:14:13;11.30;99.90
18160;DHT22;9205;52.032;4.314;2023-10-31T00:16:40;11.30;99.90
18160;DHT22;9205;52.032;4.314;2023-10-31T00:19:08;11.40;99.90
18160;DHT22;9205;52.032;4.314;2023-10-31T00:21:36;11.20;99.90
18160;DHT22;9205;52.032;4.314;2023-10-31T00:24:04;11.00;99.90
18160;DHT22;9205;52.032;4.314;2023-10-31T00:26:31;11.50;99.90
18160;DHT22;9205;52.032;4.314;2023-10-31T00:28:58;11.00;99.90
18160;DHT22;9205;52.032;4.314;2023-10-31T00:31:26;11.00;99.90
18160;DHT22;9205;52.032;4.314;2023-10-31T00:33:53;11.40;99.90
18160;DHT22;9205;52.032;4.314;2023-10-31T00:36:21;11.40;99.90
18160;DHT22;9205;52.032;4.314;2023-10-31T00:38:49;11.20;99.90
18160;DHT22;9205;52.032;4.314;2023-10-31T00:41:16;11.50;99.90
18160;DHT22;9205;52.032;4.314;2023-10-31T00:43:43;11.20;99.90
18160;DHT22;9205;52.032;4.314;2023-10-31T00:46:11;11.60;99.90
18160;DHT22;9205;52.032;4.314;2023-10-31T00:48:38;11.60;99.90
18160;DHT22;9205;52.032;4.314;2023-10-31T00:51:06;11.50;99.90
18160;DHT22;9205;52.032;4.314;2023-10-31T00:53:33;11.40;99.90
18160;DHT22;9205;52.032;4.314;2023-10-31T00:56:02;11.50;99.90
18160;DHT22;9205;52.032;4.314;2023-10-31T00:58:30;11.10;99.90
18160;DHT22;9205;52.032;4.314;2023-10-31T01:00:58;11.50;99.90
18160;DHT22;9205;52.032;4.314;2023-10-31T01:03:25;11.60;99.90
18160;DHT22;9205;52.032;4.314;2023-10-31T01:05:52;11.30;99.90
18160;DHT22;9205;52.032;4.314;2023-10-31T01:08:19;11.30;99.90
18160;DHT22;9205;52.032;4.314;2023-10-31T01:10:48;11.10;99.90
18160;DHT22;9205;52.032;4.314;2023-10-31T01:13:16;11.50;99.90
18160;DHT22;9205;52.032;4.314;2023-10-31T01:15:44;11.10;99.90
18160;DHT22;9205;52.032;4.314;2023-10-31T01:18:11;11.20;99.90
18160;DHT22;9205;52.032;4.314;2023-10-31T01:20:38;11.10;99.90
18160;DHT22;9205;52.032;4.314;2023-10-31T01:23:06;11.40;99.90
18160;DHT22;9205;52.032;4.314;2023-10-31T01:25:33;11.30;99.90
18160;DHT22;9205;52.032;4.314;2023-10-31T01:28:00;11.10;99.90
18160;DHT22;9205;52.032;4.314;2023-10-31T01:30:28;11.50;99.90
18160;DHT22;9205;52.032;4.314;2023-10-31T01:32:55;11.00;99.90
18160;DHT22;9205;52.032;4.314;2023-10-31T01:35:23;11.50;99.90
18160;DHT22;9205;52.032;4.314;2023-10-31T01:37:50;11.40;99.90
18160;DHT22;9205;52.032;4.314;2023-10-31T01:40:17;10.80;99.90
18160;DHT22;9205;52.032;4.314;2023-10-31T01:42:45;10.80;99.90
18160;DHT22;9205;52.032;4.314;2023-10-31T01:45:12;11.10;99.90
18160;DHT22;9205;52.032;4.314;2023-10-31T01:47:43;11.20;99.90
18160;DHT22;9205;52.032;4.314;2023-10-31T01:50:15;11.20;99.90
18160;DHT22;9205;52.032;4.314;2023-10-31T01:52:43;10.70;99.90
18160;DHT22;9205;52.032;4.314;2023-10-31T01:55:12;11.30;99.90
18160;DHT22;9205;52.032;4.314;2023-10-31T01:57:40;10.70;99.90
18160;DHT22;9205;52.032;4.314;2023-10-31T02:00:08;10.80;99.90
18160;DHT22;9205;52.032;4.314;2023-10-31T02:02:41;10.80;99.90
18160;DHT22;9205;52.032;4.314;2023-10-31T02:05:09;11.30;99.90
18160;DHT22;9205;52.032;4.314;2023-10-31T02:07:37;11.00;99.90
18160;DHT22;9205;52.032;4.314;2023-10-31T02:10:04;11.00;99.90
18160;DHT22;9205;52.032;4.314;2023-10-31T02:12:33;11.20;99.90
18160;DHT22;9205;52.032;4.314;2023-10-31T02:15:01;10.90;99.90
18160;DHT22;9205;52.032;4.314;2023-10-31T02:17:30;11.40;99.90
18160;DHT22;9205;52.032;4.314;2023-10-31T02:19:58;11.40;99.90
18160;DHT22;9205;52.032;4.314;2023-10-31T02:22:26;11.20;99.90
18160;DHT22;9205;52.032;4.314;2023-10-31T02:24:54;11.30;99.90
18160;DHT22;9205;52.032;4.314;2023-10-31T02:27:22;11.00;99.90
18160;DHT22;9205;52.032;4.314;2023-10-31T02:29:49;11.30;99.90
18160;DHT22;9205;52.032;4.314;2023-10-31T02:32:16;11.00;99.90
18160;DHT22;9205;52.032;4.314;2023-10-31T02:34:44;11.30;99.90
18160;DHT22;9205;52.032;4.314;2023-10-31T02:37:12;11.30;99.90
18160;DHT22;9205;52.032;4.314;2023-10-31T02:39:40;10.80;99.90
18160;DHT22;9205;52.032;4.314;2023-10-31T02:42:07;11.10;99.90
18160;DHT22;9205;52.032;4.314;2023-10-31T02:44:34;11.20;99.90
18160;DHT22;9205;52.032;4.314;2023-10-31T02:47:02;11.10;99.90
18160;DHT22;9205;52.032;4.314;2023-10-31T02:49:29;10.70;99.90
18160;DHT22;9205;52.032;4.314;2023-10-31T02:51:56;11.10;99.90
18160;DHT22;9205;52.032;4.314;2023-10-31T02:54:23;11.00;99.90
18160;DHT22;9205;52.032;4.314;2023-10-31T02:56:52;10.70;99.90
18160;DHT22;9205;52.032;4.314;2023-10-31T02:59:19;10.70;99.90
18160;DHT22;9205;52.032;4.314;2023-10-31T03:01:46;10.70;99.90
18160;DHT22;9205;52.032;4.314;2023-10-31T03:04:13;10.90;99.90
18160;DHT22;9205;52.032;4.314;2023-10-31T03:06:40;10.90;99.90
18160;DHT22;9205;52.032;4.314;2023-10-31T03:09:08;10.70;99.90
18160;DHT22;9205;52.032;4.314;2023-10-31T03:11:35;10.70;99.90
18160;DHT22;9205;52.032;4.314;2023-10-31T03:14:04;10.40;99.90
18160;DHT22;9205;52.032;4.314;2023-10-31T03:16:31;10.40;99.90
18160;DHT22;9205;52.032;4.314;2023-10-31T03:18:59;10.40;99.90
18160;DHT22;9205;52.032;4.314;2023-10-31T03:21:26;10.70;99.90
18160;DHT22;9205;52.032;4.314;2023-10-31T03:23:53;10.40;99.90
18160;DHT22;9205;52.032;4.314;2023-10-31T03:26:21;10.60;99.90
18160;DHT22;9205;52.032;4.314;2023-10-31T03:28:49;10.50;99.90
18160;DHT22;9205;52.032;4.314;2023-10-31T03:31:18;10.70;99.90
18160;DHT22;9205;52.032;4.314;2023-10-31T03:33:45;10.80;99.90
18160;DHT22;9205;52.032;4.314;2023-10-31T03:36:12;10.90;99.90
18160;DHT22;9205;52.032;4.314;2023-10-31T03:38:39;10.60;99.90
18160;DHT22;9205;52.032;4.314;2023-10-31T03:41:08;10.60;99.90
18160;DHT22;9205;52.032;4.314;2023-10-31T03:43:35;10.90;99.90
18160;DHT22;9205;52.032;4.314;2023-10-31T03:46:03;10.60;99.90
18160;DHT22;9205;52.032;4.314;2023-10-31T03:48:32;10.60;99.90
18160;DHT22;9205;52.032;4.314;2023-10-31T03:50:59;10.70;99.90
18160;DHT22;9205;52.032;4.314;2023-10-31T03:53:26;10.90;99.90
18160;DHT22;9205;52.032;4.314;2023-10-31T03:55:54;11.00;99.90
18160;DHT22;9205;52.032;4.314;2023-10-31T03:58:21;10.70;99.90
18160;DHT22;9205;52.032;4.314;2023-10-31T04:00:49;10.80;99.90
18160;DHT22;9205;52.032;4.314;2023-10-31T04:03:16;10.80;99.90
18160;DHT22;9205;52.032;4.314;2023-10-31T04:05:45;10.50;99.90
18160;DHT22;9205;52.032;4.314;2023-10-31T04:08:12;11.00;99.90
18160;DHT22;9205;52.032;4.314;2023-10-31T04:10:39;11.00;99.90
18160;DHT22;9205;52.032;4.314;2023-10-31T04:13:06;11.00;99.90
18160;DHT22;9205;52.032;4.314;2023-10-31T04:15:33;11.10;99.90
18160;DHT22;9205;52.032;4.314;2023-10-31T04:18:01;10.90;99.90
18160;DHT22;9205;52.032;4.314;2023-10-31T04:20:28;11.10;99.90
18160;DHT22;9205;52.032;4.314;2023-10-31T04:22:57;10.60;99.90
18160;DHT22;9205;52.032;4.314;2023-10-31T04:25:24;11.10;99.90
18160;DHT22;9205;52.032;4.314;2023-10-31T04:27:52;10.90;99.90
18160;DHT22;9205;52.032;4.314;2023-10-31T04:30:19;11.00;99.90
18160;DHT22;9205;52.032;4.314;2023-10-31T04:32:47;11.00;99.90
18160;DHT22;9205;52.032;4.314;2023-10-31T04:35:14;10.80;99.90
18160;DHT22;9205;52.032;4.314;2023-10-31T04:37:41;10.70;99.90
18160;DHT22;9205;52.032;4.314;2023-10-31T04:40:11;10.80;99.90
18160;DHT22;9205;52.032;4.314;2023-10-31T04:42:39;10.90;99.90
18160;DHT22;9205;52.032;4.314;2023-10-31T04:45:08;11.00;99.90
18160;DHT22;9205;52.032;4.314;2023-10-31T04:47:36;11.00;99.90
18160;DHT22;9205;52.032;4.314;2023-10-31T04:50:03;11.10;99.90
18160;DHT22;9205;52.032;4.314;2023-10-31T04:52:31;10.90;99.90
18160;DHT22;9205;52.032;4.314;2023-10-31T04:54:58;10.90;99.90
18160;DHT22;9205;52.032;4.314;2023-10-31T04:57:26;10.70;99.90
18160;DHT22;9205;52.032;4.314;2023-10-31T04:59:53;10.50;99.90
18160;DHT22;9205;52.032;4.314;2023-10-31T05:02:23;10.50;99.90
18160;DHT22;9205;52.032;4.314;2023-10-31T05:04:50;10.90;99.90
18160;DHT22;9205;52.032;4.314;2023-10-31T05:07:17;10.60;99.90
18160;DHT22;9205;52.032;4.314;2023-10-31T05:09:44;11.00;99.90
18160;DHT22;9205;52.032;4.314;2023-10-31T05:12:12;10.70;99.90
18160;DHT22;9205;52.032;4.314;2023-10-31T05:14:41;10.60;99.90
18160;DHT22;9205;52.032;4.314;2023-10-31T05:17:08;10.60;99.90
18160;DHT22;9205;52.032;4.314;2023-10-31T05:19:35;10.60;99.90
18160;DHT22;9205;52.032;4.314;2023-10-31T05:22:03;10.60;99.90
18160;DHT22;9205;52.032;4.314;2023-10-31T05:24:30;10.60;99.90
18160;DHT22;9205;52.032;4.314;2023-10-31T05:26:57;10.70;99.90
18160;DHT22;9205;52.032;4.314;2023-10-31T05:29:25;10.50;99.90
18160;DHT22;9205;52.032;4.314;2023-10-31T05:31:53;10.50;99.90
18160;DHT22;9205;52.032;4.314;2023-10-31T05:34:20;10.70;99.90
18160;DHT22;9205;52.032;4.314;2023-10-31T05:36:48;10.90;99.90
18160;DHT22;9205;52.032;4.314;2023-10-31T05:39:15;10.90;99.90
18160;DHT22;9205;52.032;4.314;2023-10-31T05:41:42;10.70;99.90
18160;DHT22;9205;52.032;4.314;2023-10-31T05:44:09;10.90;99.90
18160;DHT22;9205;52.032;4.314;2023-10-31T05:46:38;10.80;99.90
18160;DHT22;9205;52.032;4.314;2023-10-31T05:49:07;11.00;99.90
18160;DHT22;9205;52.032;4.314;2023-10-31T05:51:35;10.50;99.90
18160;DHT22;9205;52.032;4.314;2023-10-31T05:54:02;10.50;99.90
18160;DHT22;9205;52.032;4.314;2023-10-31T05:56:30;10.90;99.90
18160;DHT22;9205;52.032;4.314;2023-10-31T05:58:57;10.70;99.90
18160;DHT22;9205;52.032;4.314;2023-10-31T06:01:24;10.90;99.90
18160;DHT22;9205;52.032;4.314;2023-10-31T06:03:51;11.00;99.90
18160;DHT22;9205;52.032;4.314;2023-10-31T06:06:20;10.70;99.90
18160;DHT22;9205;52.032;4.314;2023-10-31T06:08:47;10.50;99.90
18160;DHT22;9205;52.032;4.314;2023-10-31T06:11:14;10.60;99.90
18160;DHT22;9205;52.032;4.314;2023-10-31T06:13:41;11.00;99.90
18160;DHT22;9205;52.032;4.314;2023-10-31T06:16:08;10.80;99.90
18160;DHT22;9205;52.032;4.314;2023-10-31T06:18:37;10.50;99.90
18160;DHT22;9205;52.032;4.314;2023-10-31T06:21:06;10.80;99.90
18160;DHT22;9205;52.032;4.314;2023-10-31T06:23:36;10.60;99.90
18160;DHT22;9205;52.032;4.314;2023-10-31T06:26:03;10.60;99.90
18160;DHT22;9205;52.032;4.314;2023-10-31T06:28:31;10.80;99.90
18160;DHT22;9205;52.032;4.314;2023-10-31T06:31:00;10.50;99.90
18160;DHT22;9205;52.032;4.314;2023-10-31T06:33:28;10.60;99.90
18160;DHT22;9205;52.032;4.314;2023-10-31T06:35:55;10.60;99.90
18160;DHT22;9205;52.032;4.314;2023-10-31T06:38:22;10.70;99.90
18160;DHT22;9205;52.032;4.314;2023-10-31T06:40:51;10.80;99.90
18160;DHT22;9205;52.032;4.314;2023-10-31T06:43:18;11.00;99.90
18160;DHT22;9205;52.032;4.314;2023-10-31T06:45:45;11.00;99.90
18160;DHT22;9205;52.032;4.314;2023-10-31T06:48:12;10.70;99.90
18160;DHT22;9205;52.032;4.314;2023-10-31T06:50:40;11.00;99.90
18160;DHT22;9205;52.032;4.314;2023-10-31T06:53:07;10.60;99.90
18160;DHT22;9205;52.032;4.314;2023-10-31T06:55:34;11.00;99.90
18160;DHT22;9205;52.032;4.314;2023-10-31T06:58:02;10.90;99.90
18160;DHT22;9205;52.032;4.314;2023-10-31T07:00:30;11.20;99.90
18160;DHT22;9205;52.032;4.314;2023-10-31T07:02:57;11.00;99.90
18160;DHT22;9205;52.032;4.314;2023-10-31T07:05:25;11.00;99.90
18160;DHT22;9205;52.032;4.314;2023-10-31T07:07:52;10.80;99.90
18160;DHT22;9205;52.032;4.314;2023-10-31T07:10:19;10.90;99.90
18160;DHT22;9205;52.032;4.314;2023-10-31T07:12:46;11.00;99.90
18160;DHT22;9205;52.032;4.314;2023-10-31T07:15:15;11.10;99.90
18160;DHT22;9205;52.032;4.314;2023-10-31T07:17:43;10.80;99.90
18160;DHT22;9205;52.032;4.314;2023-10-31T07:20:10;11.20;99.90
18160;DHT22;9205;52.032;4.314;2023-10-31T07:22:37;11.00;99.90
18160;DHT22;9205;52.032;4.314;2023-10-31T07:25:05;10.70;99.90
18160;DHT22;9205;52.032;4.314;2023-10-31T07:27:33;11.10;99.90
18160;DHT22;9205;52.032;4.314;2023-10-31T07:30:01;11.00;99.90
18160;DHT22;9205;52.032;4.314;2023-10-31T07:32:31;11.00;99.90
18160;DHT22;9205;52.032;4.314;2023-10-31T07:34:58;10.70;99.90
18160;DHT22;9205;52.032;4.314;2023-10-31T07:37:27;10.90;99.90
18160;DHT22;9205;52.032;4.314;2023-10-31T07:39:54;10.80;99.90
18160;DHT22;9205;52.032;4.314;2023-10-31T07:42:21;11.10;99.90
18160;DHT22;9205;52.032;4.314;2023-10-31T07:44:49;10.70;99.90
18160;DHT22;9205;52.032;4.314;2023-10-31T07:47:16;11.00;99.90
18160;DHT22;9205;52.032;4.314;2023-10-31T07:49:45;10.90;99.90
18160;DHT22;9205;52.032;4.314;2023-10-31T07:52:13;10.80;99.90
18160;DHT22;9205;52.032;4.314;2023-10-31T07:54:40;10.70;99.90
18160;DHT22;9205;52.032;4.314;2023-10-31T07:57:07;11.20;99.90
18160;DHT22;9205;52.032;4.314;2023-10-31T07:59:35;10.70;99.90
18160;DHT22;9205;52.032;4.314;2023-10-31T08:02:02;10.90;99.90
18160;DHT22;9205;52.032;4.314;2023-10-31T08:04:31;11.20;99.90
18160;DHT22;9205;52.032;4.314;2023-10-31T08:06:59;11.10;99.90
18160;DHT22;9205;52.032;4.314;2023-10-31T08:09:27;11.40;99.90
18160;DHT22;9205;52.032;4.314;2023-10-31T08:11:54;11.30;99.90
18160;DHT22;9205;52.032;4.314;2023-10-31T08:14:21;11.00;99.90
18160;DHT22;9205;52.032;4.314;2023-10-31T08:16:48;11.10;99.90
18160;DHT22;9205;52.032;4.314;2023-10-31T08:19:16;11.60;99.90
18160;DHT22;9205;52.032;4.314;2023-10-31T08:21:43;11.30;99.90
18160;DHT22;9205;52.032;4.314;2023-10-31T08:24:11;11.20;99.90
18160;DHT22;9205;52.032;4.314;2023-10-31T08:26:39;11.30;99.90
18160;DHT22;9205;52.032;4.314;2023-10-31T08:29:06;11.40;99.90
18160;DHT22;9205;52.032;4.314;2023-10-31T08:31:33;11.30;99.90
18160;DHT22;9205;52.032;4.314;2023-10-31T08:34:00;11.60;99.90
18160;DHT22;9205;52.032;4.314;2023-10-31T08:36:29;11.30;99.90
18160;DHT22;9205;52.032;4.314;2023-10-31T08:38:56;11.90;99.90
18160;DHT22;9205;52.032;4.314;2023-10-31T08:41:25;11.30;99.90
18160;DHT22;9205;52.032;4.314;2023-10-31T08:43:52;11.30;99.90
18160;DHT22;9205;52.032;4.314;2023-10-31T08:46:19;11.70;99.90
18160;DHT22;9205;52.032;4.314;2023-10-31T08:48:47;11.50;99.90
18160;DHT22;9205;52.032;4.314;2023-10-31T08:51:14;11.50;99.90
18160;DHT22;9205;52.032;4.314;2023-10-31T08:53:41;12.10;99.90
18160;DHT22;9205;52.032;4.314;2023-10-31T08:56:09;11.60;99.90
18160;DHT22;9205;52.032;4.314;2023-10-31T08:58:37;12.10;99.90
18160;DHT22;9205;52.032;4.314;2023-10-31T09:01:04;12.30;99.90
18160;DHT22;9205;52.032;4.314;2023-10-31T09:03:32;11.80;99.90
18160;DHT22;9205;52.032;4.314;2023-10-31T09:05:59;12.00;99.90
18160;DHT22;9205;52.032;4.314;2023-10-31T09:08:27;11.50;99.90
18160;DHT22;9205;52.032;4.314;2023-10-31T09:10:54;11.90;99.90
18160;DHT22;9205;52.032;4.314;2023-10-31T09:13:22;11.80;99.90
18160;DHT22;9205;52.032;4.314;2023-10-31T09:15:50;11.80;99.90
18160;DHT22;9205;52.032;4.314;2023-10-31T09:18:17;11.70;99.90
18160;DHT22;9205;52.032;4.314;2023-10-31T09:20:44;11.90;99.90
18160;DHT22;9205;52.032;4.314;2023-10-31T09:23:12;11.70;99.90
18160;DHT22;9205;52.032;4.314;2023-10-31T09:25:39;11.90;99.90
18160;DHT22;9205;52.032;4.314;2023-10-31T09:28:06;12.10;99.90
18160;DHT22;9205;52.032;4.314;2023-10-31T09:30:33;12.00;99.90
18160;DHT22;9205;52.032;4.314;2023-10-31T09:33:02;12.00;99.90
18160;DHT22;9205;52.032;4.314;2023-10-31T09:35:29;12.30;99.90
18160;DHT22;9205;52.032;4.314;2023-10-31T09:37:56;12.40;99.90
18160;DHT22;9205;52.032;4.314;2023-10-31T09:40:23;12.50;99.90
18160;DHT22;9205;52.032;4.314;2023-10-31T09:42:51;12.00;99.90
18160;DHT22;9205;52.032;4.314;2023-10-31T09:45:18;12.30;99.90
18160;DHT22;9205;52.032;4.314;2023-10-31T09:47:45;12.10;99.90
18160;DHT22;9205;52.032;4.314;2023-10-31T09:50:14;12.10;99.90
18160;DHT22;9205;52.032;4.314;2023-10-31T09:52:41;12.50;99.90
18160;DHT22;9205;52.032;4.314;2023-10-31T09:55:09;12.60;99.90
18160;DHT22;9205;52.032;4.314;2023-10-31T09:57:37;12.10;99.90
18160;DHT22;9205;52.032;4.314;2023-10-31T10:00:06;12.50;99.90
18160;DHT22;9205;52.032;4.314;2023-10-31T10:02:36;12.00;99.90
18160;DHT22;9205;52.032;4.314;2023-10-31T10:05:04;12.40;99.90
18160;DHT22;9205;52.032;4.314;2023-10-31T10:07:34;12.60;99.90
18160;DHT22;9205;52.032;4.314;2023-10-31T10:10:01;12.20;99.90
18160;DHT22;9205;52.032;4.314;2023-10-31T10:12:29;12.00;99.90
18160;DHT22;9205;52.032;4.314;2023-10-31T10:14:57;12.50;99.90
18160;DHT22;9205;52.032;4.314;2023-10-31T10:17:25;12.20;99.90
18160;DHT22;9205;52.032;4.314;2023-10-31T10:20:05;12.10;99.90
18160;DHT22;9205;52.032;4.314;2023-10-31T10:22:38;12.60;99.90
18160;DHT22;9205;52.032;4.314;2023-10-31T10:25:08;12.40;99.90
18160;DHT22;9205;52.032;4.314;2023-10-31T10:27:37;12.60;99.90
18160;DHT22;9205;52.032;4.314;2023-10-31T10:30:07;12.70;99.90
18160;DHT22;9205;52.032;4.314;2023-10-31T10:32:35;12.30;99.90
18160;DHT22;9205;52.032;4.314;2023-10-31T10:35:02;12.60;99.90
18160;DHT22;9205;52.032;4.314;2023-10-31T10:37:33;12.30;99.90
18160;DHT22;9205;52.032;4.314;2023-10-31T10:40:07;12.80;99.90
18160;DHT22;9205;52.032;4.314;2023-10-31T10:42:44;13.10;99.90
18160;DHT22;9205;52.032;4.314;2023-10-31T10:45:14;13.30;99.90
18160;DHT22;9205;52.032;4.314;2023-10-31T10:47:47;12.90;99.90
18160;DHT22;9205;52.032;4.314;2023-10-31T10:50:18;13.40;99.90
18160;DHT22;9205;52.032;4.314;2023-10-31T10:52:53;12.90;99.90
18160;DHT22;9205;52.032;4.314;2023-10-31T10:55:26;13.40;99.90
18160;DHT22;9205;52.032;4.314;2023-10-31T10:58:00;13.30;99.90
18160;DHT22;9205;52.032;4.314;2023-10-31T11:00:29;13.50;99.90
18160;DHT22;9205;52.032;4.314;2023-10-31T11:02:57;12.90;99.90
18160;DHT22;9205;52.032;4.314;2023-10-31T11:05:27;13.40;99.90
18160;DHT22;9205;52.032;4.314;2023-10-31T11:07:57;13.20;99.90
18160;DHT22;9205;52.032;4.314;2023-10-31T11:10:24;13.60;99.90
18160;DHT22;9205;52.032;4.314;2023-10-31T11:12:52;13.20;99.90
18160;DHT22;9205;52.032;4.314;2023-10-31T11:15:20;13.10;99.90
18160;DHT22;9205;52.032;4.314;2023-10-31T11:17:48;13.00;99.90
18160;DHT22;9205;52.032;4.314;2023-10-31T11:20:18;13.40;99.90
18160;DHT22;9205;52.032;4.314;2023-10-31T11:22:47;13.50;99.90
18160;DHT22;9205;52.032;4.314;2023-10-31T11:25:20;13.70;99.90
18160;DHT22;9205;52.032;4.314;2023-10-31T11:27:50;13.10;99.90
18160;DHT22;9205;52.032;4.314;2023-10-31T11:30:21;13.40;99.90
18160;DHT22;9205;52.032;4.314;2023-10-31T11:32:53;13.80;99.90
18160;DHT22;9205;52.032;4.314;2023-10-31T11:35:22;13.60;99.90
18160;DHT22;9205;52.032;4.314;2023-10-31T11:37:49;13.40;99.90
18160;DHT22;9205;52.032;4.314;2023-10-31T11:40:29;13.40;99.90
18160;DHT22;9205;52.032;4.314;2023-10-31T11:42:58;13.50;99.90
18160;DHT22;9205;52.032;4.314;2023-10-31T11:45:30;13.80;99.90
18160;DHT22;9205;52.032;4.314;2023-10-31T11:47:59;13.80;99.90
18160;DHT22;9205;52.032;4.314;2023-10-31T11:50:26;13.40;99.90
18160;DHT22;9205;52.032;4.314;2023-10-31T11:53:02;13.80;99.90
18160;DHT22;9205;52.032;4.314;2023-10-31T11:55:34;13.60;99.90
18160;DHT22;9205;52.032;4.314;2023-10-31T11:58:15;13.60;99.90
18160;DHT22;9205;52.032;4.314;2023-10-31T12:00:44;13.90;99.90
18160;DHT22;9205;52.032;4.314;2023-10-31T12:03:15;13.40;99.90
18160;DHT22;9205;52.032;4.314;2023-10-31T12:05:53;13.50;99.90
18160;DHT22;9205;52.032;4.314;2023-10-31T12:08:25;13.60;99.90
18160;DHT22;9205;52.032;4.314;2023-10-31T12:11:03;13.70;99.90
18160;DHT22;9205;52.032;4.314;2023-10-31T12:13:32;13.40;99.90
18160;DHT22;9205;52.032;4.314;2023-10-31T12:16:00;13.20;99.90
18160;DHT22;9205;52.032;4.314;2023-10-31T12:18:28;12.90;99.90
18160;DHT22;9205;52.032;4.314;2023-10-31T12:20:56;13.00;99.90
18160;DHT22;9205;52.032;4.314;2023-10-31T12:23:23;12.60;99.90
18160;DHT22;9205;52.032;4.314;2023-10-31T12:25:50;12.60;99.90
18160;DHT22;9205;52.032;4.314;2023-10-31T12:28:20;12.90;99.90
18160;DHT22;9205;52.032;4.314;2023-10-31T12:30:50;12.90;99.90
18160;DHT22;9205;52.032;4.314;2023-10-31T12:33:20;12.90;99.90
18160;DHT22;9205;52.032;4.314;2023-10-31T12:35:51;12.60;99.90
18160;DHT22;9205;52.032;4.314;2023-10-31T12:38:23;12.40;99.90
18160;DHT22;9205;52.032;4.314;2023-10-31T12:40:51;12.50;99.90
18160;DHT22;9205;52.032;4.314;2023-10-31T12:43:21;12.30;99.90
18160;DHT22;9205;52.032;4.314;2023-10-31T12:45:48;12.40;99.90
18160;DHT22;9205;52.032;4.314;2023-10-31T12:48:15;12.60;99.90
18160;DHT22;9205;52.032;4.314;2023-10-31T12:50:43;12.60;99.90
18160;DHT22;9205;52.032;4.314;2023-10-31T12:53:10;12.20;99.90
18160;DHT22;9205;52.032;4.314;2023-10-31T12:55:38;12.50;99.90
18160;DHT22;9205;52.032;4.314;2023-10-31T12:58:07;12.60;99.90
18160;DHT22;9205;52.032;4.314;2023-10-31T13:00:37;12.70;99.90
18160;DHT22;9205;52.032;4.314;2023-10-31T13:03:06;12.70;99.90
18160;DHT22;9205;52.032;4.314;2023-10-31T13:05:34;12.60;99.90
18160;DHT22;9205;52.032;4.314;2023-10-31T13:08:02;12.30;99.90
18160;DHT22;9205;52.032;4.314;2023-10-31T13:10:31;12.70;99.90
18160;DHT22;9205;52.032;4.314;2023-10-31T13:12:59;12.60;99.90
18160;DHT22;9205;52.032;4.314;2023-10-31T13:15:26;12.50;99.90
18160;DHT22;9205;52.032;4.314;2023-10-31T13:17:55;12.60;99.90
18160;DHT22;9205;52.032;4.314;2023-10-31T13:20:22;12.60;99.90
18160;DHT22;9205;52.032;4.314;2023-10-31T13:22:50;12.30;99.90
18160;DHT22;9205;52.032;4.314;2023-10-31T13:25:17;12.40;99.90
18160;DHT22;9205;52.032;4.314;2023-10-31T13:27:45;12.40;99.90
18160;DHT22;9205;52.032;4.314;2023-10-31T13:30:17;11.80;99.90
18160;DHT22;9205;52.032;4.314;2023-10-31T13:32:44;12.30;99.90
18160;DHT22;9205;52.032;4.314;2023-10-31T13:35:13;11.80;99.90
18160;DHT22;9205;52.032;4.314;2023-10-31T13:37:40;11.80;99.90
18160;DHT22;9205;52.032;4.314;2023-10-31T13:40:08;12.00;99.90
18160;DHT22;9205;52.032;4.314;2023-10-31T13:42:35;11.90;99.90
18160;DHT22;9205;52.032;4.314;2023-10-31T13:45:03;11.90;99.90
18160;DHT22;9205;52.032;4.314;2023-10-31T13:47:31;11.80;99.90
18160;DHT22;9205;52.032;4.314;2023-10-31T13:49:58;12.10;99.90
18160;DHT22;9205;52.032;4.314;2023-10-31T13:52:27;12.10;99.90
18160;DHT22;9205;52.032;4.314;2023-10-31T13:54:54;11.80;99.90
18160;DHT22;9205;52.032;4.314;2023-10-31T13:57:21;11.80;99.90
18160;DHT22;9205;52.032;4.314;2023-10-31T13:59:49;12.00;99.90
18160;DHT22;9205;52.032;4.314;2023-10-31T14:02:17;11.80;99.90
18160;DHT22;9205;52.032;4.314;2023-10-31T14:04:45;11.60;99.90
18160;DHT22;9205;52.032;4.314;2023-10-31T14:07:17;12.00;99.90
18160;DHT22;9205;52.032;4.314;2023-10-31T14:09:49;11.60;99.90
18160;DHT22;9205;52.032;4.314;2023-10-31T14:12:17;12.00;99.90
18160;DHT22;9205;52.032;4.314;2023-10-31T14:14:44;11.60;99.90
18160;DHT22;9205;52.032;4.314;2023-10-31T14:17:13;11.80;99.90
18160;DHT22;9205;52.032;4.314;2023-10-31T14:19:42;11.90;99.90
18160;DHT22;9205;52.032;4.314;2023-10-31T14:22:11;11.40;99.90
18160;DHT22;9205;52.032;4.314;2023-10-31T14:24:38;11.50;99.90
18160;DHT22;9205;52.032;4.314;2023-10-31T14:27:07;11.40;99.90
18160;DHT22;9205;52.032;4.314;2023-10-31T14:29:35;11.40;99.90
18160;DHT22;9205;52.032;4.314;2023-10-31T14:32:11;11.60;99.90
18160;DHT22;9205;52.032;4.314;2023-10-31T14:34:38;11.50;99.90
18160;DHT22;9205;52.032;4.314;2023-10-31T14:37:05;11.90;99.90
18160;DHT22;9205;52.032;4.314;2023-10-31T14:39:32;11.70;99.90
18160;DHT22;9205;52.032;4.314;2023-10-31T14:42:00;11.70;99.90
18160;DHT22;9205;52.032;4.314;2023-10-31T14:44:28;11.40;99.90
18160;DHT22;9205;52.032;4.314;2023-10-31T14:46:56;11.80;99.90
18160;DHT22;9205;52.032;4.314;2023-10-31T14:49:23;11.70;99.90
18160;DHT22;9205;52.032;4.314;2023-10-31T14:51:50;11.80;99.90
18160;DHT22;9205;52.032;4.314;2023-10-31T14:54:17;11.80;99.90
18160;DHT22;9205;52.032;4.314;2023-10-31T14:56:46;11.90;99.90
18160;DHT22;9205;52.032;4.314;2023-10-31T14:59:13;11.90;99.90
18160;DHT22;9205;52.032;4.314;2023-10-31T15:01:42;11.80;99.90
18160;DHT22;9205;52.032;4.314;2023-10-31T15:04:09;11.90;99.90
18160;DHT22;9205;52.032;4.314;2023-10-31T15:06:37;11.80;99.90
18160;DHT22;9205;52.032;4.314;2023-10-31T15:09:04;11.70;99.90
18160;DHT22;9205;52.032;4.314;2023-10-31T15:11:32;11.90;99.90
18160;DHT22;9205;52.032;4.314;2023-10-31T15:13:59;11.50;99.90
18160;DHT22;9205;52.032;4.314;2023-10-31T15:16:27;11.90;99.90
18160;DHT22;9205;52.032;4.314;2023-10-31T15:18:57;11.70;99.90
18160;DHT22;9205;52.032;4.314;2023-10-31T15:21:24;11.90;99.90
18160;DHT22;9205;52.032;4.314;2023-10-31T15:23:52;11.80;99.90
18160;DHT22;9205;52.032;4.314;2023-10-31T15:26:22;11.90;99.90
18160;DHT22;9205;52.032;4.314;2023-10-31T15:28:51;11.70;99.90
18160;DHT22;9205;52.032;4.314;2023-10-31T15:31:18;11.40;99.90
18160;DHT22;9205;52.032;4.314;2023-10-31T15:33:45;11.30;99.90
18160;DHT22;9205;52.032;4.314;2023-10-31T15:36:14;11.50;99.90
18160;DHT22;9205;52.032;4.314;2023-10-31T15:38:41;11.60;99.90
18160;DHT22;9205;52.032;4.314;2023-10-31T15:41:09;11.30;99.90
18160;DHT22;9205;52.032;4.314;2023-10-31T15:43:38;11.30;99.90
18160;DHT22;9205;52.032;4.314;2023-10-31T15:46:05;11.60;99.90
18160;DHT22;9205;52.032;4.314;2023-10-31T15:48:32;11.60;99.90
18160;DHT22;9205;52.032;4.314;2023-10-31T15:51:00;11.60;99.90